createdAt,value
2022-11-04T00:04:03.013Z,18.87
2022-11-04T00:09:08.106Z,19.00
2022-11-04T00:14:11.639Z,25.80
2022-11-04T00:19:14.461Z,22.37
2022-11-04T00:24:35.658Z,18.80
2022-11-04T00:29:38.410Z,20.47
2022-11-04T05:33:26.993Z,10.27
2022-11-04T05:38:29.781Z,17.33
2022-11-04T05:43:33.055Z,13.27
2022-11-04T05:48:40.311Z,10.53
2022-11-04T05:53:43.654Z,15.23
2022-11-04T05:58:46.417Z,11.77
2022-11-04T06:03:49.165Z,11.17
2022-11-04T06:08:52.429Z,14.03
2022-11-04T06:13:56.088Z,12.57
2022-11-04T06:19:01.755Z,14.00
2022-11-04T06:24:08.964Z,15.03
2022-11-04T06:29:11.714Z,14.13
2022-11-04T06:34:14.505Z,11.60
2022-11-04T06:39:17.495Z,13.87
2022-11-04T06:44:20.307Z,12.30
2022-11-04T06:49:23.273Z,16.00
2022-11-04T06:54:26.026Z,12.63
2022-11-04T06:59:28.773Z,10.03
2022-11-04T07:04:31.669Z,11.77
2022-11-04T07:09:36.392Z,13.40
2022-11-04T07:14:39.208Z,10.80
2022-11-04T07:19:42.148Z,11.80
2022-11-04T07:24:48.434Z,11.80
2022-11-04T07:29:53.712Z,12.77
2022-11-04T07:34:57.743Z,12.93
2022-11-04T07:40:00.649Z,12.07
2022-11-04T07:45:03.858Z,10.80
2022-11-04T07:50:10.980Z,9.93
2022-11-04T07:55:18.499Z,7.93
2022-11-04T08:00:21.434Z,8.33
2022-11-04T08:05:24.446Z,9.80
2022-11-04T08:10:27.846Z,11.20
2022-11-04T08:15:30.663Z,12.30
2022-11-04T08:20:33.480Z,10.53
2022-11-04T08:25:36.416Z,12.83
2022-11-04T08:30:39.347Z,12.37
2022-11-04T08:35:42.860Z,11.17
2022-11-04T08:40:45.686Z,10.53
2022-11-04T08:45:48.668Z,9.33
2022-11-04T08:50:53.257Z,9.83
2022-11-04T08:55:56.119Z,10.00
2022-11-04T09:00:59.420Z,11.77
2022-11-04T09:06:02.214Z,12.03
2022-11-04T09:11:07.957Z,14.33
2022-11-04T09:16:12.485Z,20.13
2022-11-04T09:21:15.251Z,11.03
2022-11-04T09:26:18.124Z,10.07
2022-11-04T09:31:21.390Z,11.30
2022-11-04T09:36:24.591Z,11.80
2022-11-04T09:41:47.365Z,11.30
2022-11-04T09:46:51.591Z,17.00
2022-11-04T09:51:56.416Z,15.13
2022-11-04T09:57:00.205Z,11.83
2022-11-04T10:02:06.851Z,14.63
2022-11-04T10:07:38.973Z,14.70
2022-11-04T10:13:04.924Z,16.37
2022-11-04T10:18:38.080Z,12.80
2022-11-04T10:23:46.082Z,9.80
2022-11-04T10:28:55.576Z,15.30
2022-11-04T10:34:16.037Z,13.43
2022-11-04T10:39:31.239Z,13.33
2022-11-04T10:44:35.170Z,9.87
2022-11-04T10:50:27.110Z,11.47
2022-11-04T10:55:45.231Z,10.43
2022-11-04T11:00:48.267Z,11.03
2022-11-04T11:05:52.886Z,15.00
2022-11-04T11:10:56.672Z,12.83
2022-11-04T11:16:19.407Z,10.17
2022-11-04T11:21:23.977Z,10.23
2022-11-04T11:26:33.008Z,13.03
2022-11-04T11:31:37.845Z,12.03
2022-11-04T11:36:41.855Z,12.47
2022-11-04T11:42:02.565Z,9.70
2022-11-04T11:47:20.506Z,10.97
2022-11-04T11:52:27.846Z,10.03
2022-11-04T12:09:34.417Z,12.60
2022-11-04T12:14:52.818Z,11.03
2022-11-04T12:20:13.280Z,11.17
2022-11-04T12:25:32.840Z,10.73
2022-11-04T12:30:49.968Z,10.50
2022-11-04T12:36:41.056Z,10.23
2022-11-04T12:42:23.079Z,12.23
2022-11-04T12:47:43.753Z,14.53
2022-11-04T12:53:03.373Z,14.30
2022-11-04T12:58:14.742Z,13.33
2022-11-04T13:03:30.280Z,9.70
2022-11-04T13:08:44.598Z,10.07
2022-11-04T13:13:47.443Z,12.33
2022-11-04T13:18:51.474Z,10.07
2022-11-04T13:24:17.923Z,12.40
2022-11-04T13:29:22.341Z,11.97
2022-11-04T13:34:44.760Z,9.20
2022-11-04T13:39:52.013Z,10.63
2022-11-04T13:44:59.668Z,11.73
2022-11-04T13:50:02.522Z,16.13
2022-11-04T13:55:08.729Z,16.47
2022-11-04T14:00:22.731Z,25.50
2022-11-04T14:05:31.224Z,20.43
2022-11-04T14:10:49.291Z,16.70
2022-11-04T14:16:14.184Z,15.03
2022-11-04T14:21:27.879Z,17.70
2022-11-04T14:26:43.301Z,13.43
2022-11-04T14:31:50.533Z,13.37
2022-11-04T14:37:07.934Z,10.63
2022-11-04T14:42:14.217Z,15.37
2022-11-04T14:47:26.856Z,12.03
2022-11-04T14:52:38.057Z,11.97
2022-11-04T14:57:48.458Z,13.00
2022-11-04T15:03:35.553Z,11.50
2022-11-04T15:08:39.971Z,13.40
2022-11-04T15:14:01.017Z,13.10
2022-11-04T15:19:04.165Z,10.07
2022-11-04T15:24:16.861Z,10.47
2022-11-04T15:29:23.120Z,13.40
2022-11-04T15:34:27.340Z,19.83
2022-11-04T15:39:45.124Z,14.50
2022-11-04T15:44:53.167Z,14.30
2022-11-04T15:50:05.327Z,17.03
2022-11-04T15:55:22.074Z,16.07
2022-11-04T16:06:10.048Z,20.77
2022-11-04T16:11:21.247Z,15.43
2022-11-04T16:16:28.676Z,19.23
2022-11-04T16:21:56.302Z,30.57
2022-11-04T16:27:07.161Z,36.27
2022-11-04T16:32:38.035Z,47.83
2022-11-04T16:37:46.302Z,32.97
2022-11-04T16:43:07.989Z,32.33
2022-11-04T16:48:22.759Z,40.33
2022-11-04T16:53:36.679Z,45.83
2022-11-04T16:58:52.841Z,37.33
2022-11-04T17:04:08.700Z,33.00
2022-11-04T17:09:34.284Z,32.37
2022-11-04T17:14:47.074Z,30.40
2022-11-04T17:20:00.210Z,28.27
2022-11-04T17:25:21.378Z,28.87
2022-11-04T17:30:39.136Z,28.43
2022-11-04T17:35:50.303Z,27.93
2022-11-04T17:41:17.783Z,25.53
2022-11-04T17:46:41.816Z,21.10
2022-11-04T17:51:47.827Z,24.40
2022-11-04T17:56:51.847Z,26.73
2022-11-04T18:02:04.404Z,25.93
2022-11-04T18:07:10.650Z,25.07
2022-11-04T18:12:43.423Z,27.83
2022-11-04T18:17:51.142Z,24.67
2022-11-04T18:23:02.288Z,22.90
2022-11-04T18:28:07.459Z,23.60
2022-11-04T18:33:10.545Z,28.53
2022-11-04T18:38:13.712Z,24.97
2022-11-04T18:43:16.950Z,23.67
2022-11-04T18:48:21.069Z,22.57
2022-11-04T18:53:26.985Z,22.43
2022-11-04T18:58:35.895Z,20.17
2022-11-04T19:03:39.447Z,27.47
2022-11-04T19:08:46.722Z,37.40
2022-11-04T19:13:55.053Z,36.47
2022-11-04T19:19:03.106Z,33.50
2022-11-04T19:24:08.217Z,31.63
2022-11-04T19:29:11.040Z,31.83
2022-11-04T19:34:13.852Z,29.47
2022-11-04T19:39:16.643Z,26.97
2022-11-04T19:44:21.813Z,30.80
2022-11-04T19:49:24.746Z,31.03
2022-11-04T19:54:28.570Z,25.40
2022-11-04T19:59:31.449Z,29.57
2022-11-04T20:04:34.272Z,26.30
2022-11-04T20:09:37.134Z,29.20
2022-11-04T20:14:40.050Z,29.03
2022-11-04T20:19:42.897Z,28.63
2022-11-04T20:24:45.832Z,27.60
2022-11-04T20:29:48.646Z,26.67
2022-11-04T20:34:51.493Z,30.17
2022-11-04T20:39:54.481Z,30.77
2022-11-04T20:44:57.281Z,27.67
2022-11-04T20:50:00.093Z,33.30
2022-11-04T20:55:03.926Z,25.97
2022-11-04T21:00:08.959Z,27.33
2022-11-04T21:05:12.155Z,28.47
2022-11-04T21:10:14.999Z,25.13
2022-11-04T21:15:37.312Z,26.17
2022-11-04T21:20:41.941Z,27.80
2022-11-04T21:25:48.017Z,26.90
2022-11-04T21:30:52.562Z,25.63
2022-11-04T21:35:55.574Z,26.50
2022-11-04T21:41:07.853Z,25.13
2022-11-04T21:46:13.717Z,24.83
2022-11-04T21:51:22.369Z,26.13
2022-11-04T21:56:29.740Z,30.77
2022-11-04T22:01:33.022Z,35.40
2022-11-04T22:06:36.171Z,28.70
2022-11-04T22:11:39.936Z,29.30
2022-11-04T22:16:44.306Z,31.80
2022-11-04T22:21:47.366Z,30.63
2022-11-04T22:26:50.814Z,27.17
2022-11-04T22:31:53.706Z,30.77
2022-11-04T22:36:56.924Z,29.37
2022-11-04T22:42:00.100Z,27.50
2022-11-04T22:47:03.223Z,27.03
2022-11-04T22:52:14.434Z,22.03
2022-11-04T22:57:50.851Z,22.33
2022-11-04T23:02:54.483Z,24.73
2022-11-04T23:08:03.565Z,29.00
2022-11-04T23:13:29.203Z,31.03
2022-11-04T23:18:45.750Z,31.20
2022-11-04T23:24:25.801Z,33.03
2022-11-04T23:29:50.296Z,23.67
2022-11-04T23:35:11.835Z,18.97
2022-11-04T23:40:32.052Z,17.73
2022-11-04T23:46:03.573Z,12.47
2022-11-04T23:51:25.035Z,10.33
2022-11-04T23:56:48.944Z,7.67
